Time;durP1;ratioP1;P1;durP2;ratioP2;P2;SDS_P1;SDS_P2;PMS_P1;PMS_P2;Temp;Humidity;BMP_temperature;BMP_pressure;BME280_temperature;BME280_humidity;BME280_pressure;Samples;Min_cycle;Max_cycle;Signal;HPM_P1;HPM_P2
2022/03/03 00:00:49;;;;;;;27.23;13.20;;;6.50;99.90;;;;;;5035905;28;20164;-78
2022/03/03 00:03:15;;;;;;;18.83;12.88;;;6.50;99.90;;;;;;5035816;28;20579;-78
2022/03/03 00:05:40;;;;;;;20.48;13.50;;;6.50;99.90;;;;;;5035553;28;20234;-79
2022/03/03 00:08:06;;;;;;;18.48;12.32;;;6.30;99.90;;;;;;5036038;28;20509;-78
2022/03/03 00:10:32;;;;;;;28.88;13.73;;;6.20;99.90;;;;;;5035741;28;20208;-78
2022/03/03 00:12:57;;;;;;;25.08;13.68;;;6.30;99.90;;;;;;5035879;28;20250;-78
2022/03/03 00:15:23;;;;;;;30.75;14.25;;;6.20;99.90;;;;;;5035736;28;20187;-78
2022/03/03 00:17:49;;;;;;;21.38;13.70;;;6.20;99.90;;;;;;5035255;28;20172;-78
2022/03/03 00:20:14;;;;;;;28.63;14.18;;;6.30;99.90;;;;;;5035732;28;20210;-78
2022/03/03 00:22:40;;;;;;;21.40;13.57;;;6.20;99.90;;;;;;5035674;28;20167;-78
2022/03/03 00:25:06;;;;;;;19.25;13.18;;;6.20;99.90;;;;;;5036062;28;20590;-82
2022/03/03 00:27:31;;;;;;;21.90;12.48;;;6.10;99.90;;;;;;5035460;28;20251;-78
2022/03/03 00:29:57;;;;;;;19.75;12.52;;;6.10;99.90;;;;;;5035258;28;20199;-77
2022/03/03 00:32:22;;;;;;;18.38;12.32;;;6.30;99.90;;;;;;5035403;28;20549;-77
2022/03/03 00:34:48;;;;;;;23.80;13.05;;;6.40;99.90;;;;;;5035484;28;20190;-77
2022/03/03 00:37:14;;;;;;;19.42;12.40;;;6.40;99.90;;;;;;5035786;28;20171;-77
2022/03/03 00:39:39;;;;;;;21.98;12.73;;;6.20;99.90;;;;;;5036293;28;20167;-78
2022/03/03 00:42:05;;;;;;;21.30;13.35;;;6.20;99.90;;;;;;5035777;28;20692;-78
2022/03/03 00:44:31;;;;;;;23.17;13.50;;;6.00;99.90;;;;;;5038401;28;20687;-78
2022/03/03 00:46:57;;;;;;;17.38;12.43;;;6.10;99.90;;;;;;5040246;28;20176;-79
2022/03/03 00:49:22;;;;;;;25.42;16.63;;;6.10;99.90;;;;;;5042377;28;20624;-79
2022/03/03 00:51:48;;;;;;;21.00;13.50;;;6.10;99.90;;;;;;5041611;28;20236;-77
2022/03/03 00:54:13;;;;;;;25.80;14.02;;;6.00;99.90;;;;;;5035926;28;20168;-79
2022/03/03 00:56:39;;;;;;;22.55;13.05;;;6.00;99.90;;;;;;5035743;28;20644;-78
2022/03/03 00:59:05;;;;;;;24.52;13.07;;;6.00;99.90;;;;;;5033621;28;20528;-78
2022/03/03 01:01:30;;;;;;;20.90;13.13;;;5.90;99.90;;;;;;5034888;28;20247;-79
2022/03/03 01:03:56;;;;;;;21.10;13.23;;;5.60;99.90;;;;;;5034660;28;20168;-79
2022/03/03 01:06:22;;;;;;;19.67;13.30;;;5.50;99.90;;;;;;5032936;28;20188;-78
2022/03/03 01:08:47;;;;;;;19.63;13.60;;;5.60;99.90;;;;;;5033674;28;20176;-78
2022/03/03 01:11:13;;;;;;;30.50;14.93;;;5.50;99.90;;;;;;5034200;28;20207;-79
2022/03/03 01:13:39;;;;;;;26.90;13.35;;;5.30;99.90;;;;;;5034415;28;20477;-78
2022/03/03 01:16:05;;;;;;;34.75;14.20;;;5.40;99.90;;;;;;5033427;28;20192;-78
2022/03/03 01:18:30;;;;;;;19.63;12.88;;;5.40;99.90;;;;;;5034157;28;20574;-78
2022/03/03 01:20:56;;;;;;;25.55;13.13;;;5.50;99.90;;;;;;5034225;28;20567;-79
2022/03/03 01:23:22;;;;;;;26.92;13.02;;;5.50;99.90;;;;;;5034670;28;20164;-79
2022/03/03 01:25:48;;;;;;;16.83;12.90;;;5.40;99.90;;;;;;5034029;28;20199;-79
2022/03/03 01:28:14;;;;;;;21.63;12.95;;;5.40;99.90;;;;;;5034178;28;20225;-78
2022/03/03 01:30:40;;;;;;;19.30;12.25;;;5.70;99.90;;;;;;5034082;28;20211;-78
2022/03/03 01:33:06;;;;;;;18.73;12.73;;;5.80;99.90;;;;;;5033988;28;20196;-78
2022/03/03 01:35:32;;;;;;;19.95;12.32;;;5.70;99.90;;;;;;5033844;28;20216;-78
2022/03/03 01:37:58;;;;;;;18.17;12.48;;;5.70;99.90;;;;;;5032535;28;20629;-83
2022/03/03 01:40:25;;;;;;;18.90;12.82;;;5.60;99.90;;;;;;5033565;28;20635;-78
2022/03/03 01:42:51;;;;;;;25.75;13.70;;;6.00;99.90;;;;;;5033833;28;20179;-79
2022/03/03 01:45:17;;;;;;;16.88;11.43;;;6.10;99.90;;;;;;5035106;28;20201;-79
2022/03/03 01:47:43;;;;;;;20.83;13.55;;;6.00;99.90;;;;;;5034453;28;20176;-79
2022/03/03 01:50:09;;;;;;;19.20;13.20;;;6.10;99.90;;;;;;5033475;28;20207;-79
2022/03/03 01:52:35;;;;;;;22.95;13.77;;;6.20;99.90;;;;;;5033831;28;20566;-79
2022/03/03 01:55:00;;;;;;;30.13;13.80;;;6.10;99.90;;;;;;5032530;28;20731;-79
2022/03/03 01:57:26;;;;;;;30.33;15.20;;;6.10;99.90;;;;;;5034025;28;20255;-79
2022/03/03 01:59:52;;;;;;;32.58;14.25;;;6.20;99.90;;;;;;5033592;28;20199;-78
2022/03/03 02:02:18;;;;;;;32.90;16.08;;;6.10;99.90;;;;;;5033301;28;20172;-78
2022/03/03 02:04:43;;;;;;;29.50;14.98;;;6.00;99.90;;;;;;5033562;28;20242;-78
2022/03/03 02:07:10;;;;;;;21.77;13.05;;;5.70;99.90;;;;;;5033570;28;20206;-78
2022/03/03 02:09:36;;;;;;;29.80;13.10;;;5.60;99.90;;;;;;5033557;28;20191;-77
2022/03/03 02:12:02;;;;;;;22.17;13.18;;;5.70;99.90;;;;;;5032053;28;20250;-77
2022/03/03 02:14:28;;;;;;;23.83;12.38;;;5.70;99.90;;;;;;5033210;28;20187;-78
2022/03/03 02:16:54;;;;;;;20.67;13.35;;;5.70;99.90;;;;;;5033412;28;20178;-78
2022/03/03 02:19:21;;;;;;;26.95;14.73;;;5.90;99.90;;;;;;5033160;28;20160;-79
2022/03/03 02:21:53;;;;;;;27.00;12.43;;;5.80;99.90;;;;;;5033271;28;20164;-78
2022/03/03 02:24:20;;;;;;;31.58;14.35;;;5.80;99.90;;;;;;5031838;28;20278;-78
2022/03/03 02:26:47;;;;;;;17.67;11.43;;;5.90;99.90;;;;;;5033242;28;20172;-79
2022/03/03 02:29:13;;;;;;;23.17;12.20;;;5.90;99.90;;;;;;5032910;28;20168;-78
2022/03/03 02:31:40;;;;;;;28.02;13.77;;;5.90;99.90;;;;;;5033279;28;20672;-78
2022/03/03 02:34:06;;;;;;;22.85;12.90;;;5.70;99.90;;;;;;5031786;28;20258;-78
2022/03/03 02:36:32;;;;;;;23.13;13.45;;;5.80;99.90;;;;;;5033049;28;20205;-78
2022/03/03 02:39:00;;;;;;;30.10;12.25;;;5.60;99.90;;;;;;5033035;28;20255;-77
2022/03/03 02:41:28;;;;;;;19.13;12.45;;;5.60;99.90;;;;;;5033415;28;20530;-78
2022/03/03 02:43:55;;;;;;;17.67;12.75;;;5.40;99.90;;;;;;5033184;28;20172;-78
2022/03/03 02:46:20;;;;;;;21.27;12.18;;;5.30;99.90;;;;;;5032980;28;20230;-77
2022/03/03 02:48:46;;;;;;;26.77;12.82;;;5.30;99.90;;;;;;5032945;28;20171;-78
2022/03/03 02:51:12;;;;;;;17.80;12.10;;;5.30;99.90;;;;;;5032996;28;20684;-77
2022/03/03 02:53:38;;;;;;;21.05;12.13;;;5.50;99.90;;;;;;5032833;28;20172;-78
2022/03/03 02:56:05;;;;;;;20.42;12.52;;;5.70;99.90;;;;;;5032318;28;20602;-77
2022/03/03 02:58:31;;;;;;;21.77;12.93;;;5.80;99.90;;;;;;5031921;28;20167;-78
2022/03/03 03:00:57;;;;;;;24.25;12.43;;;5.80;99.90;;;;;;5033453;28;20242;-80
2022/03/03 03:03:23;;;;;;;20.35;11.85;;;5.80;99.90;;;;;;5033020;28;20172;-79
2022/03/03 03:05:49;;;;;;;22.77;11.77;;;5.90;99.90;;;;;;5033099;28;20195;-78
2022/03/03 03:08:15;;;;;;;20.95;11.85;;;5.70;99.90;;;;;;5032934;28;20176;-79
2022/03/03 03:10:41;;;;;;;30.17;12.88;;;5.60;99.90;;;;;;5032832;28;20246;-78
2022/03/03 03:13:08;;;;;;;20.65;11.95;;;5.60;99.90;;;;;;5033026;28;20640;-78
2022/03/03 03:15:35;;;;;;;18.08;12.07;;;5.60;99.90;;;;;;5033246;28;20192;-78
2022/03/03 03:18:12;;;;;;;17.20;12.52;;;5.30;99.90;;;;;;5032875;28;20164;-78
2022/03/03 03:20:39;;;;;;;17.77;11.55;;;5.30;99.90;;;;;;5032546;28;20210;-80
2022/03/03 03:23:06;;;;;;;24.48;11.75;;;5.30;99.90;;;;;;5032742;28;20764;-79
2022/03/03 03:25:32;;;;;;;19.95;12.68;;;5.20;99.90;;;;;;5032862;28;20206;-79
2022/03/03 03:27:58;;;;;;;25.98;12.23;;;5.20;99.90;;;;;;5032815;28;20171;-78
2022/03/03 03:30:23;;;;;;;18.88;10.93;;;5.40;99.90;;;;;;5032260;28;20207;-77
2022/03/03 03:32:49;;;;;;;21.70;11.82;;;5.40;99.90;;;;;;5032611;28;20168;-78
2022/03/03 03:35:15;;;;;;;20.60;11.98;;;5.50;99.90;;;;;;5032447;28;20591;-78
2022/03/03 03:37:40;;;;;;;21.80;10.98;;;5.60;99.90;;;;;;5032861;28;20183;-78
2022/03/03 03:40:08;;;;;;;24.45;12.60;;;5.60;99.90;;;;;;5033808;28;20164;-81
2022/03/03 03:42:34;;;;;;;21.17;11.55;;;5.60;99.90;;;;;;5036414;28;20179;-77
2022/03/03 03:45:00;;;;;;;15.30;11.82;;;5.50;99.90;;;;;;5036167;28;20184;-77
2022/03/03 03:47:25;;;;;;;17.77;12.20;;;5.50;99.90;;;;;;5036082;28;20226;-77
2022/03/03 03:49:51;;;;;;;29.20;13.70;;;5.60;99.90;;;;;;5036172;28;20168;-78
2022/03/03 03:52:17;;;;;;;27.33;12.23;;;5.70;99.90;;;;;;5038640;28;20164;-80
2022/03/03 03:54:43;;;;;;;19.45;11.75;;;5.60;99.90;;;;;;5036382;28;20532;-79
2022/03/03 03:57:08;;;;;;;31.50;13.38;;;5.60;99.90;;;;;;5035961;28;20711;-79
2022/03/03 03:59:35;;;;;;;25.27;11.65;;;5.60;99.90;;;;;;5036415;28;20258;-79
2022/03/03 04:02:00;;;;;;;20.83;13.50;;;5.70;99.90;;;;;;5036154;28;20194;-79
2022/03/03 04:04:26;;;;;;;20.95;12.10;;;5.90;99.90;;;;;;5036167;28;20684;-79
2022/03/03 04:06:51;;;;;;;22.80;12.93;;;5.90;99.90;;;;;;5035905;28;20684;-79
2022/03/03 04:09:17;;;;;;;20.55;13.00;;;5.80;99.90;;;;;;5035484;28;20218;-79
2022/03/03 04:11:42;;;;;;;16.13;11.63;;;5.80;99.90;;;;;;5035312;28;20298;-78
2022/03/03 04:14:08;;;;;;;19.83;11.88;;;5.60;99.90;;;;;;5035760;28;20164;-78
2022/03/03 04:16:34;;;;;;;24.52;13.70;;;5.60;99.90;;;;;;5035594;28;20178;-78
2022/03/03 04:19:00;;;;;;;19.60;12.63;;;5.70;99.90;;;;;;5035619;28;20503;-78
2022/03/03 04:21:26;;;;;;;22.23;11.95;;;5.50;99.90;;;;;;5036006;28;20297;-78
2022/03/03 04:23:52;;;;;;;20.40;12.45;;;5.40;99.90;;;;;;5035598;28;20199;-81
2022/03/03 04:26:17;;;;;;;18.48;12.40;;;5.00;99.90;;;;;;5035948;28;20187;-78
2022/03/03 04:28:43;;;;;;;21.38;12.25;;;5.00;99.90;;;;;;5035718;28;20180;-78
2022/03/03 04:31:09;;;;;;;20.63;11.70;;;5.00;99.90;;;;;;5035397;28;20215;-78
2022/03/03 04:33:34;;;;;;;18.40;12.15;;;5.10;99.90;;;;;;5035770;28;20519;-78
2022/03/03 04:36:00;;;;;;;23.48;11.82;;;5.20;99.90;;;;;;5035182;28;20672;-78
2022/03/03 04:38:26;;;;;;;15.27;10.95;;;5.30;99.90;;;;;;5035828;28;20160;-78
2022/03/03 04:40:51;;;;;;;21.83;12.70;;;5.10;99.90;;;;;;5035587;28;20172;-79
2022/03/03 04:43:17;;;;;;;25.30;12.43;;;4.90;99.90;;;;;;5044025;28;20160;-77
2022/03/03 04:45:44;;;;;;;22.33;12.13;;;5.00;99.90;;;;;;5044552;28;20192;-80
2022/03/03 04:48:09;;;;;;;19.63;12.23;;;5.00;99.90;;;;;;5043463;28;20160;-79
2022/03/03 04:50:36;;;;;;;17.02;12.05;;;4.80;99.90;;;;;;5036428;28;20207;-79
2022/03/03 04:53:02;;;;;;;22.02;11.57;;;4.90;99.90;;;;;;5034409;28;20168;-77
2022/03/03 04:55:28;;;;;;;20.30;11.25;;;5.00;99.90;;;;;;5034368;28;20199;-78
2022/03/03 04:57:54;;;;;;;20.40;12.52;;;5.00;99.90;;;;;;5034749;28;20176;-77
2022/03/03 05:00:19;;;;;;;24.33;13.27;;;5.10;99.90;;;;;;5034961;28;20171;-78
2022/03/03 05:02:45;;;;;;;23.58;12.27;;;5.10;99.90;;;;;;5034125;28;20287;-78
2022/03/03 05:05:11;;;;;;;18.45;11.30;;;5.00;99.90;;;;;;5034574;28;20188;-78
2022/03/03 05:07:37;;;;;;;16.73;11.63;;;4.90;99.90;;;;;;5034339;28;20223;-78
2022/03/03 05:10:04;;;;;;;18.23;11.75;;;4.80;99.90;;;;;;5033721;28;20660;-78
2022/03/03 05:12:29;;;;;;;17.48;12.88;;;4.80;99.90;;;;;;5034108;28;20199;-78
2022/03/03 05:14:56;;;;;;;16.15;11.73;;;4.80;99.90;;;;;;5034070;28;20219;-78
2022/03/03 05:17:22;;;;;;;16.73;10.90;;;4.70;99.90;;;;;;5033844;28;20167;-78
2022/03/03 05:19:47;;;;;;;22.77;13.02;;;4.50;99.90;;;;;;5034256;28;20172;-77
2022/03/03 05:22:13;;;;;;;16.48;10.80;;;4.40;99.90;;;;;;5034019;28;20172;-81
2022/03/03 05:24:38;;;;;;;16.67;11.50;;;4.20;99.90;;;;;;5033610;28;20204;-77
2022/03/03 05:27:04;;;;;;;20.10;11.32;;;4.20;99.90;;;;;;5032547;28;20230;-77
2022/03/03 05:29:30;;;;;;;18.45;11.45;;;4.10;99.90;;;;;;5033614;28;20564;-78
2022/03/03 05:31:58;;;;;;;20.23;11.68;;;4.20;99.90;;;;;;5033683;28;20204;-78
2022/03/03 05:34:25;;;;;;;21.52;11.82;;;4.50;99.90;;;;;;5033622;28;20188;-78
2022/03/03 05:36:51;;;;;;;23.52;12.65;;;4.80;99.90;;;;;;5033807;28;20510;-78
2022/03/03 05:39:17;;;;;;;31.95;11.23;;;4.90;99.90;;;;;;5033360;28;20172;-80
2022/03/03 05:41:43;;;;;;;26.85;12.35;;;4.90;99.90;;;;;;5033387;28;20753;-78
2022/03/03 05:44:14;;;;;;;26.15;12.38;;;4.80;99.90;;;;;;5033351;28;20262;-77
2022/03/03 05:46:43;;;;;;;21.67;12.18;;;5.00;99.90;;;;;;5033058;28;20168;-78
2022/03/03 05:49:10;;;;;;;22.13;12.30;;;4.90;99.90;;;;;;5033202;28;20184;-79
2022/03/03 05:51:36;;;;;;;22.08;11.57;;;4.80;99.90;;;;;;5033160;28;20247;-79
2022/03/03 05:54:02;;;;;;;27.40;11.60;;;4.70;99.90;;;;;;5033401;28;20168;-82
2022/03/03 05:56:32;;;;;;;24.50;11.65;;;4.60;99.90;;;;;;5034076;28;20203;-78
2022/03/03 05:59:01;;;;;;;20.65;12.48;;;4.60;99.90;;;;;;5039492;28;20163;-77
2022/03/03 06:01:28;;;;;;;16.75;10.57;;;4.40;99.90;;;;;;5033091;28;20712;-78
2022/03/03 06:03:59;;;;;;;24.50;12.93;;;4.30;99.90;;;;;;5032967;28;20243;-78
2022/03/03 06:06:31;;;;;;;21.52;12.27;;;4.20;99.90;;;;;;5033356;28;20192;-78
2022/03/03 06:09:14;;;;;;;24.95;12.35;;;4.30;99.90;;;;;;5033070;28;20168;-77
2022/03/03 06:11:51;;;;;;;22.85;12.60;;;4.10;99.90;;;;;;5034947;28;20606;-78
2022/03/03 06:14:29;;;;;;;23.75;11.35;;;4.00;99.90;;;;;;5036280;28;20497;-78
2022/03/03 06:16:57;;;;;;;16.25;11.13;;;4.20;99.90;;;;;;5035105;28;20262;-78
2022/03/03 06:19:23;;;;;;;22.05;11.50;;;4.20;99.90;;;;;;5036052;28;20230;-78
2022/03/03 06:21:49;;;;;;;21.30;12.65;;;4.20;99.90;;;;;;5036852;28;20170;-78
2022/03/03 06:24:14;;;;;;;28.65;11.93;;;4.20;99.90;;;;;;5035789;28;20187;-78
2022/03/03 06:26:40;;;;;;;19.55;12.80;;;4.20;99.90;;;;;;5034474;28;20159;-78
2022/03/03 06:29:06;;;;;;;23.98;12.23;;;4.20;99.90;;;;;;5035590;28;20258;-78
2022/03/03 06:31:31;;;;;;;19.75;11.93;;;4.00;99.90;;;;;;5033460;28;20195;-77
2022/03/03 06:33:58;;;;;;;30.30;11.35;;;4.00;99.90;;;;;;5033690;28;20258;-79
2022/03/03 06:36:25;;;;;;;27.05;13.07;;;4.10;99.90;;;;;;5033838;28;20666;-80
2022/03/03 06:38:50;;;;;;;35.95;12.70;;;4.20;99.90;;;;;;5032827;28;20528;-78
2022/03/03 06:41:16;;;;;;;36.33;12.65;;;4.00;99.90;;;;;;5033587;28;20168;-78
2022/03/03 06:43:42;;;;;;;20.90;11.95;;;3.90;99.90;;;;;;5032982;28;20629;-77
2022/03/03 06:46:09;;;;;;;26.33;12.27;;;4.00;99.90;;;;;;5032755;28;20726;-77
2022/03/03 06:48:34;;;;;;;16.88;12.32;;;4.10;99.90;;;;;;5032980;28;20267;-78
2022/03/03 06:51:04;;;;;;;26.70;11.90;;;4.20;99.90;;;;;;5033262;28;20270;-78
2022/03/03 06:53:35;;;;;;;52.55;13.27;;;4.20;99.90;;;;;;5035705;28;20232;-83
2022/03/03 06:56:09;;;;;;;23.73;12.20;;;4.20;99.90;;;;;;5035112;28;20202;-82
2022/03/03 06:58:37;;;;;;;32.15;11.95;;;4.20;99.90;;;;;;5035080;28;20217;-80
2022/03/03 07:01:07;;;;;;;25.02;12.07;;;4.30;99.90;;;;;;5035805;28;20183;-80
2022/03/03 07:03:33;;;;;;;31.52;13.13;;;4.40;99.90;;;;;;5034534;28;20621;-78
2022/03/03 07:05:59;;;;;;;17.55;12.35;;;4.60;99.90;;;;;;5032822;28;21114;-78
2022/03/03 07:08:25;;;;;;;28.00;12.18;;;4.60;99.90;;;;;;5032752;28;20168;-78
2022/03/03 07:10:51;;;;;;;21.55;12.82;;;4.60;99.90;;;;;;5032553;28;20207;-83
2022/03/03 07:13:17;;;;;;;29.48;11.73;;;4.60;99.90;;;;;;5033163;28;20251;-81
2022/03/03 07:15:49;;;;;;;42.92;14.02;;;4.70;99.90;;;;;;5034822;28;20230;-81
2022/03/03 07:18:29;;;;;;;22.02;13.07;;;4.60;99.90;;;;;;5036444;28;20160;-79
2022/03/03 07:21:20;;;;;;;30.42;13.45;;;4.60;99.90;;;;;;5036159;28;20198;-80
2022/03/03 07:23:53;;;;;;;24.08;12.02;;;4.60;99.90;;;;;;5036005;28;20582;-79
2022/03/03 07:26:20;;;;;;;44.55;14.13;;;4.70;99.90;;;;;;5036233;28;20191;-78
2022/03/03 07:28:53;;;;;;;21.45;12.07;;;4.80;99.90;;;;;;5036124;28;20164;-79
2022/03/03 07:31:23;;;;;;;22.48;12.98;;;4.80;99.90;;;;;;5036231;28;20207;-78
2022/03/03 07:33:59;;;;;;;26.90;12.65;;;4.70;99.90;;;;;;5036466;28;20213;-79
2022/03/03 07:36:30;;;;;;;18.00;12.27;;;4.70;99.90;;;;;;5036056;28;20260;-79
2022/03/03 07:38:59;;;;;;;31.75;12.60;;;4.80;99.90;;;;;;5035677;28;20161;-79
2022/03/03 07:41:27;;;;;;;27.52;13.63;;;5.00;99.90;;;;;;5035871;28;20206;-79
2022/03/03 07:43:54;;;;;;;24.52;14.70;;;5.20;99.90;;;;;;5036159;28;20183;-79
2022/03/03 07:46:21;;;;;;;21.17;12.70;;;5.10;99.90;;;;;;5035984;28;20198;-79
2022/03/03 07:48:47;;;;;;;25.30;11.77;;;5.20;99.90;;;;;;5036189;28;20540;-78
2022/03/03 07:51:13;;;;;;;22.38;13.57;;;5.30;99.90;;;;;;5035631;28;20752;-79
2022/03/03 07:53:38;;;;;;;20.17;12.23;;;5.40;99.90;;;;;;5035856;28;20168;-79
2022/03/03 07:56:10;;;;;;;19.42;12.15;;;5.40;99.90;;;;;;5035351;28;20191;-79
2022/03/03 07:58:41;;;;;;;15.50;10.85;;;5.30;99.90;;;;;;5035677;28;20210;-81
2022/03/03 08:01:09;;;;;;;31.55;13.18;;;5.30;99.90;;;;;;5035352;28;20233;-79
2022/03/03 08:03:35;;;;;;;46.95;13.60;;;5.60;99.90;;;;;;5035844;28;20640;-78
2022/03/03 08:06:01;;;;;;;56.92;13.40;;;5.60;99.90;;;;;;5035973;28;20645;-79
2022/03/03 08:08:29;;;;;;;31.77;13.95;;;5.70;99.90;;;;;;5035375;28;20230;-78
2022/03/03 08:11:07;;;;;;;24.77;13.82;;;5.70;99.90;;;;;;5035079;28;20242;-79
2022/03/03 08:13:33;;;;;;;21.58;13.15;;;5.80;99.90;;;;;;5035577;28;20541;-79
2022/03/03 08:15:59;;;;;;;21.63;11.98;;;6.00;99.90;;;;;;5035302;28;20297;-78
2022/03/03 08:18:35;;;;;;;40.45;13.27;;;5.90;99.90;;;;;;5035814;28;20171;-78
2022/03/03 08:21:01;;;;;;;20.73;12.38;;;6.00;99.90;;;;;;5035756;28;20625;-79
2022/03/03 08:23:29;;;;;;;23.88;12.93;;;6.00;99.90;;;;;;5035784;28;20164;-78
2022/03/03 08:25:55;;;;;;;21.33;12.38;;;6.10;99.90;;;;;;5034691;28;20298;-77
2022/03/03 08:28:24;;;;;;;18.85;12.65;;;6.00;99.90;;;;;;5035838;28;20678;-80
2022/03/03 08:31:01;;;;;;;20.52;11.93;;;6.00;99.90;;;;;;5035729;28;20216;-81
2022/03/03 08:34:03;;;;;;;37.33;13.20;;;6.20;99.90;;;;;;5037714;28;20609;-81
2022/03/03 08:37:00;;;;;;;22.00;11.75;;;6.30;99.90;;;;;;5036543;28;20254;-78
2022/03/03 08:39:28;;;;;;;28.38;13.40;;;6.40;99.90;;;;;;5030498;28;20190;-79
2022/03/03 08:42:00;;;;;;;23.92;12.80;;;6.40;99.90;;;;;;5043462;28;20164;-77
2022/03/03 08:44:31;;;;;;;21.88;12.38;;;6.50;99.90;;;;;;5045211;28;20199;-84
2022/03/03 08:46:57;;;;;;;22.20;12.82;;;6.40;99.90;;;;;;5035546;28;20164;-78
2022/03/03 08:49:30;;;;;;;16.48;12.13;;;6.50;99.90;;;;;;5036041;28;20621;-79
2022/03/03 08:51:56;;;;;;;21.13;12.27;;;6.50;99.90;;;;;;5035781;28;20208;-79
2022/03/03 08:54:22;;;;;;;19.80;11.52;;;6.60;99.90;;;;;;5035146;28;20156;-82
2022/03/03 08:56:48;;;;;;;19.40;12.93;;;6.70;99.90;;;;;;5034736;28;20620;-78
2022/03/03 08:59:13;;;;;;;22.23;12.75;;;6.80;99.90;;;;;;5034567;28;20172;-77
2022/03/03 09:01:39;;;;;;;23.00;11.93;;;6.90;99.90;;;;;;5034503;28;20164;-83
2022/03/03 09:04:06;;;;;;;20.90;12.50;;;7.00;99.90;;;;;;5034128;28;20198;-79
2022/03/03 09:06:33;;;;;;;17.60;11.70;;;7.30;99.90;;;;;;5034379;28;20164;-78
2022/03/03 09:08:58;;;;;;;24.95;13.07;;;7.40;99.90;;;;;;5033981;28;20167;-77
2022/03/03 09:11:24;;;;;;;20.48;12.75;;;7.50;99.90;;;;;;5034123;28;20222;-81
2022/03/03 09:13:50;;;;;;;22.30;13.05;;;7.60;99.90;;;;;;5033977;28;20210;-79
2022/03/03 09:16:17;;;;;;;20.10;13.23;;;7.60;99.90;;;;;;5033526;28;20678;-79
2022/03/03 09:18:45;;;;;;;26.02;14.10;;;7.70;99.90;;;;;;5033790;28;20678;-77
2022/03/03 09:21:11;;;;;;;27.25;14.65;;;7.90;99.90;;;;;;5033927;28;20180;-78
2022/03/03 09:23:37;;;;;;;32.42;13.98;;;8.00;99.90;;;;;;5033795;28;20625;-78
2022/03/03 09:26:02;;;;;;;30.48;15.02;;;8.20;99.90;;;;;;5033382;28;20246;-78
2022/03/03 09:28:28;;;;;;;30.92;15.35;;;8.30;99.90;;;;;;5033877;28;20721;-78
2022/03/03 09:30:56;;;;;;;26.35;14.43;;;8.40;99.90;;;;;;5033151;28;20208;-78
2022/03/03 09:33:23;;;;;;;27.13;14.20;;;8.60;99.90;;;;;;5033534;28;20244;-77
2022/03/03 09:35:50;;;;;;;24.25;13.80;;;8.80;99.90;;;;;;5033300;28;20238;-79
2022/03/03 09:38:16;;;;;;;24.20;13.35;;;8.80;99.90;;;;;;5032540;28;20202;-78
2022/03/03 09:40:43;;;;;;;24.40;14.45;;;8.70;99.90;;;;;;5033217;28;20168;-79
2022/03/03 09:43:09;;;;;;;24.73;14.10;;;8.80;99.90;;;;;;5033370;28;20206;-79
2022/03/03 09:45:36;;;;;;;26.45;14.68;;;8.90;99.90;;;;;;5033181;28;20198;-78
2022/03/03 09:48:05;;;;;;;20.25;12.70;;;9.20;99.90;;;;;;5032047;28;20668;-78
2022/03/03 09:50:31;;;;;;;20.55;13.52;;;9.30;99.90;;;;;;5032988;28;20195;-77
2022/03/03 09:52:58;;;;;;;28.60;14.65;;;9.30;99.90;;;;;;5033381;28;20175;-77
2022/03/03 09:55:24;;;;;;;25.00;15.15;;;9.50;99.90;;;;;;5033014;28;20605;-78
2022/03/03 09:57:51;;;;;;;23.17;14.18;;;9.50;99.90;;;;;;5033030;28;20176;-77
2022/03/03 10:00:18;;;;;;;23.95;13.52;;;9.50;99.90;;;;;;5033121;28;20200;-78
2022/03/03 10:03:20;;;;;;;27.90;14.85;;;9.40;99.90;;;;;;5033113;28;20175;-77
2022/03/03 10:05:50;;;;;;;25.23;14.32;;;9.60;99.90;;;;;;5033138;28;20215;-77
2022/03/03 10:08:23;;;;;;;21.85;13.52;;;9.80;99.90;;;;;;5034178;28;20645;-77
2022/03/03 10:10:58;;;;;;;28.90;13.77;;;10.00;99.90;;;;;;5032661;28;20207;-79
2022/03/03 10:13:24;;;;;;;38.92;14.55;;;10.00;99.90;;;;;;5032775;28;20182;-78
2022/03/03 10:15:55;;;;;;;29.65;14.60;;;10.10;99.90;;;;;;5031209;28;20551;-80
2022/03/03 10:18:22;;;;;;;26.33;13.93;;;9.80;99.90;;;;;;5032495;28;20172;-78
2022/03/03 10:21:02;;;;;;;21.27;14.30;;;9.90;99.90;;;;;;5032692;28;20707;-78
2022/03/03 10:23:29;;;;;;;23.67;14.90;;;10.00;99.90;;;;;;5031405;28;20180;-77
2022/03/03 10:25:57;;;;;;;36.63;15.13;;;10.30;99.90;;;;;;5032685;28;20237;-78
2022/03/03 10:28:30;;;;;;;25.08;14.13;;;10.30;99.90;;;;;;5032843;28;20167;-77
2022/03/03 10:31:22;;;;;;;28.20;15.05;;;10.20;99.90;;;;;;5032423;28;20207;-78
2022/03/03 10:33:49;;;;;;;30.20;14.82;;;10.40;99.90;;;;;;5033097;28;20571;-77
2022/03/03 10:36:23;;;;;;;24.60;14.70;;;10.60;99.90;;;;;;5032703;28;20584;-77
2022/03/03 10:39:00;;;;;;;20.02;14.15;;;10.40;99.90;;;;;;5032835;28;20171;-79
2022/03/03 10:41:36;;;;;;;21.42;14.23;;;10.60;99.90;;;;;;5032388;28;20163;-78
2022/03/03 10:44:13;;;;;;;31.83;16.58;;;10.50;99.90;;;;;;5032673;28;20536;-80
2022/03/03 10:47:00;;;;;;;27.02;15.93;;;10.70;99.90;;;;;;5032158;28;20163;-79
2022/03/03 10:49:26;;;;;;;31.90;14.32;;;10.80;99.90;;;;;;5034373;28;20246;-78
2022/03/03 10:51:52;;;;;;;21.77;14.60;;;10.80;99.90;;;;;;5034863;28;20298;-83
2022/03/03 10:54:18;;;;;;;27.10;15.95;;;10.80;99.90;;;;;;5036478;28;20173;-78
2022/03/03 10:56:49;;;;;;;32.88;16.42;;;10.70;99.90;;;;;;5035207;28;20159;-79
2022/03/03 10:59:23;;;;;;;29.80;16.50;;;10.70;99.90;;;;;;5036233;28;20168;-78
2022/03/03 11:01:49;;;;;;;32.50;17.40;;;10.60;99.90;;;;;;5036512;28;20190;-78
2022/03/03 11:04:20;;;;;;;36.63;18.52;;;10.50;99.90;;;;;;5035959;28;20228;-80
2022/03/03 11:06:49;;;;;;;32.78;16.77;;;10.60;99.90;;;;;;5036709;28;20246;-78
2022/03/03 11:09:17;;;;;;;35.85;17.15;;;10.70;99.90;;;;;;5036317;28;20168;-78
2022/03/03 11:11:43;;;;;;;36.85;17.25;;;10.80;99.90;;;;;;5035129;28;20203;-78
2022/03/03 11:14:09;;;;;;;38.22;18.60;;;10.80;99.90;;;;;;5036416;28;20168;-78
2022/03/03 11:16:35;;;;;;;32.92;16.88;;;10.90;99.90;;;;;;5035614;28;20172;-78
2022/03/03 11:19:01;;;;;;;33.72;18.33;;;10.80;99.90;;;;;;5036042;28;20180;-79
2022/03/03 11:21:27;;;;;;;31.40;16.75;;;10.90;99.90;;;;;;5036089;28;20168;-79
2022/03/03 11:23:58;;;;;;;33.85;17.73;;;10.90;99.90;;;;;;5034734;28;20464;-83
2022/03/03 11:26:51;;;;;;;27.02;16.45;;;10.90;99.90;;;;;;5035667;28;20341;-79
2022/03/03 11:29:20;;;;;;;27.35;16.70;;;11.00;99.90;;;;;;5033575;28;20191;-78
2022/03/03 11:32:01;;;;;;;33.80;16.02;;;10.80;99.90;;;;;;5035457;28;20214;-79
2022/03/03 11:34:41;;;;;;;26.38;16.83;;;10.80;99.90;;;;;;5035745;28;20238;-78
2022/03/03 11:37:09;;;;;;;107.78;22.38;;;10.90;99.90;;;;;;5034886;28;20551;-78
2022/03/03 11:39:40;;;;;;;63.30;18.02;;;10.80;99.90;;;;;;5036323;28;20222;-83
2022/03/03 11:42:22;;;;;;;61.28;16.50;;;10.90;99.90;;;;;;5035733;28;20632;-77
2022/03/03 11:44:53;;;;;;;54.17;15.90;;;11.00;99.90;;;;;;5035929;28;20199;-78
2022/03/03 11:47:21;;;;;;;29.75;15.88;;;11.10;99.90;;;;;;5035685;28;20633;-78
2022/03/03 11:50:01;;;;;;;25.83;14.40;;;11.20;99.90;;;;;;5035590;28;20164;-78
2022/03/03 11:52:27;;;;;;;33.08;15.05;;;11.30;99.90;;;;;;5034404;28;20183;-78
2022/03/03 11:54:59;;;;;;;29.50;14.65;;;11.20;99.90;;;;;;5035712;28;20188;-79
2022/03/03 11:57:29;;;;;;;29.40;14.95;;;11.30;99.90;;;;;;5035447;28;20218;-78
2022/03/03 12:00:05;;;;;;;24.48;14.30;;;11.30;99.90;;;;;;5035593;28;20230;-78
2022/03/03 12:02:32;;;;;;;22.38;14.18;;;11.40;99.90;;;;;;5033839;28;21007;-78
2022/03/03 12:05:34;;;;;;;27.73;15.40;;;11.50;99.90;;;;;;5035635;28;20197;-78
2022/03/03 12:08:07;;;;;;;18.42;13.23;;;11.50;99.90;;;;;;5035747;28;20534;-82
2022/03/03 12:10:34;;;;;;;28.05;15.82;;;11.70;99.90;;;;;;5035591;28;20684;-80
2022/03/03 12:13:25;;;;;;;24.50;13.35;;;11.60;99.90;;;;;;5035292;28;20176;-78
2022/03/03 12:16:20;;;;;;;21.40;14.85;;;11.80;99.90;;;;;;5033376;28;20653;-79
2022/03/03 12:18:54;;;;;;;29.65;14.57;;;11.90;99.90;;;;;;5035017;28;20168;-78
2022/03/03 12:21:47;;;;;;;30.00;14.85;;;12.00;99.90;;;;;;5033834;28;20171;-79
2022/03/03 12:24:13;;;;;;;26.58;14.52;;;12.00;99.90;;;;;;5036021;28;20183;-82
2022/03/03 12:27:06;;;;;;;22.70;14.57;;;12.20;99.90;;;;;;5033881;28;20271;-79
2022/03/03 12:29:39;;;;;;;22.13;13.93;;;12.20;99.90;;;;;;5033082;28;20207;-78
2022/03/03 12:32:26;;;;;;;25.80;14.18;;;12.30;99.90;;;;;;5035238;28;20214;-78
2022/03/03 12:34:54;;;;;;;24.40;15.68;;;12.20;99.90;;;;;;5040642;28;20191;-81
2022/03/03 12:37:20;;;;;;;26.83;14.35;;;12.20;99.90;;;;;;5044283;28;20164;-82
2022/03/03 12:39:50;;;;;;;24.35;14.95;;;12.10;99.90;;;;;;5043013;28;20569;-80
2022/03/03 12:42:24;;;;;;;27.02;13.95;;;12.20;99.90;;;;;;5038634;28;20567;-79